Location Glendale, AZ, US

ob KWR6634 281145Z AUTO 30000KT FEW200 25/06 A2972 RMK SLPNO 

2020.05.28 1145 UTC
Wind from the WNW (295 degrees) at Calm MPH ( KT) gusting to 0.0 MPH (0 KT)
Visibility    Mile(s)
Sky Conditions  partly cloudy
Temperature 76.80 F (25 C)
Dew Point 43.05 F (6 C)
Relative Humidity 30%
Pressure   29.72 in. Hg (1006 hPa)
Rain  0.00 in.
Daily Rain  in.

Station Name  My Glendale Arizona Weather Station
Longitude, Latitude  -112.20133199999998, 33.58645
Elevation 1180
Station URL www.myglendalewxs.com
Software Type VWS V15.00